createdAt,value
2019-04-10T00:00:10.609Z,71.325684
2019-04-10T00:00:22.911Z,71.429443
2019-04-10T00:00:34.714Z,71.569824
2019-04-10T00:00:47.733Z,71.643066
2019-04-10T00:00:59.261Z,71.746826
2019-04-10T00:01:12.132Z,71.746826
2019-04-10T00:01:23.622Z,71.850586
2019-04-10T00:01:36.052Z,71.850586
2019-04-10T00:01:47.138Z,71.850586
2019-04-10T00:01:59.968Z,71.746826
2019-04-10T00:02:11.806Z,71.643066
2019-04-10T00:02:23.821Z,71.746826
2019-04-10T00:02:35.588Z,71.746826
2019-04-10T00:02:47.967Z,71.850586
2019-04-10T00:02:59.244Z,71.850586
2019-04-10T00:03:22.902Z,71.746826
2019-04-10T00:03:32.244Z,71.777344
2019-04-10T00:03:38.925Z,71.850586
2019-04-10T00:03:48.669Z,71.850586
2019-04-10T00:04:00.779Z,71.984863
2019-04-10T00:04:12.622Z,72.088623
2019-04-10T00:04:25.185Z,71.984863
2019-04-10T00:04:36.942Z,71.984863
2019-04-10T00:04:48.236Z,71.984863
2019-04-10T00:05:01.189Z,71.984863
2019-04-10T00:05:13.803Z,72.088623
2019-04-10T00:05:25.575Z,72.192383
2019-04-10T00:05:36.641Z,72.296143
2019-04-10T00:05:48.480Z,72.296143
2019-04-10T00:06:00.547Z,72.406006
2019-04-10T00:06:15.144Z,72.509766
2019-04-10T00:06:24.140Z,72.613525
2019-04-10T00:06:36.118Z,72.747803
2019-04-10T00:06:48.132Z,72.851562
2019-04-10T00:07:08.293Z,72.851562
2019-04-10T00:07:15.587Z,72.851562
2019-04-10T00:07:25.710Z,72.955322
2019-04-10T00:07:37.540Z,73.065186
2019-04-10T00:07:50.005Z,73.065186
2019-04-10T00:08:01.834Z,73.168945
2019-04-10T00:08:13.031Z,73.168945
2019-04-10T00:08:24.918Z,73.272705
2019-04-10T00:08:38.620Z,73.272705
2019-04-10T00:08:50.550Z,73.272705
2019-04-10T00:09:01.479Z,73.272705
2019-04-10T00:09:13.415Z,73.168945
2019-04-10T00:09:25.332Z,73.168945
2019-04-10T00:09:39.007Z,73.168945
2019-04-10T00:09:50.026Z,73.272705
2019-04-10T00:10:01.865Z,73.168945
2019-04-10T00:10:13.906Z,73.168945
2019-04-10T00:10:25.750Z,73.272705
2019-04-10T00:10:38.286Z,73.272705
2019-04-10T00:10:49.368Z,73.272705
2019-04-10T00:11:01.202Z,73.272705
2019-04-10T00:11:13.095Z,73.272705
2019-04-10T00:11:26.919Z,73.272705
2019-04-10T00:11:37.814Z,73.376465
2019-04-10T00:11:51.363Z,73.480225
2019-04-10T00:12:02.449Z,73.583984
2019-04-10T00:12:14.375Z,73.687744
2019-04-10T00:12:26.240Z,73.791504
2019-04-10T00:12:40.322Z,73.791504
2019-04-10T00:12:51.150Z,73.791504
2019-04-10T00:13:03.086Z,73.791504
2019-04-10T00:13:14.920Z,73.791504
2019-04-10T00:13:28.837Z,73.791504
2019-04-10T00:13:39.670Z,73.791504
2019-04-10T00:13:51.602Z,73.791504
2019-04-10T00:14:03.535Z,73.791504
2019-04-10T00:14:16.383Z,73.791504
2019-04-10T00:14:28.034Z,73.791504
2019-04-10T00:14:39.138Z,73.687744
2019-04-10T00:14:51.053Z,73.687744
2019-04-10T00:15:03.117Z,73.687744
2019-04-10T00:15:16.865Z,73.687744
2019-04-10T00:15:28.409Z,73.687744
2019-04-10T00:15:40.252Z,73.583984
2019-04-10T00:15:51.234Z,73.583984
2019-04-10T00:16:03.546Z,73.583984
2019-04-10T00:16:15.714Z,73.583984
2019-04-10T00:16:27.817Z,73.583984
2019-04-10T00:16:40.440Z,73.583984
2019-04-10T00:16:52.206Z,73.687744
2019-04-10T00:17:03.426Z,73.687744
2019-04-10T00:17:16.545Z,73.791504
2019-04-10T00:17:29.085Z,73.828125
2019-04-10T00:17:41.061Z,73.931885
2019-04-10T00:17:53.528Z,74.035645
2019-04-10T00:18:05.291Z,74.035645
2019-04-10T00:18:16.588Z,74.035645
2019-04-10T00:18:29.807Z,74.035645
2019-04-10T00:18:42.163Z,74.035645
2019-04-10T00:18:53.960Z,74.139404
2019-04-10T00:19:05.049Z,74.139404
2019-04-10T00:19:16.880Z,74.139404
2019-04-10T00:19:28.895Z,74.139404
2019-04-10T00:19:40.719Z,74.243164
2019-04-10T00:19:52.546Z,74.346924
2019-04-10T00:20:05.430Z,74.450684
2019-04-10T00:20:18.370Z,74.560547
2019-04-10T00:20:30.130Z,74.560547
2019-04-10T00:20:42.691Z,74.560547
2019-04-10T00:20:53.924Z,74.560547
2019-04-10T00:21:05.760Z,74.664307
2019-04-10T00:21:18.629Z,74.664307
2019-04-10T00:21:31.323Z,74.768066
2019-04-10T00:21:43.307Z,74.871826
2019-04-10T00:21:55.652Z,74.768066
2019-04-10T00:22:07.035Z,74.768066
2019-04-10T00:22:20.077Z,74.664307
2019-04-10T00:22:31.748Z,74.664307
2019-04-10T00:22:44.486Z,74.768066
2019-04-10T00:22:55.405Z,74.664307
2019-04-10T00:23:07.236Z,74.664307
2019-04-10T00:23:19.320Z,74.664307
2019-04-10T00:23:31.159Z,74.560547
2019-04-10T00:23:43.646Z,74.560547
2019-04-10T00:23:55.514Z,74.664307
2019-04-10T00:24:07.950Z,74.768066
2019-04-10T00:24:18.609Z,74.871826
2019-04-10T00:24:32.291Z,74.975586
2019-04-10T00:24:44.200Z,74.975586
2019-04-10T00:24:55.222Z,74.975586
2019-04-10T00:25:07.128Z,75.079346
2019-04-10T00:25:18.979Z,75.079346
2019-04-10T00:25:32.581Z,74.975586
2019-04-10T00:25:45.315Z,74.975586
2019-04-10T00:25:57.240Z,74.975586
2019-04-10T00:26:09.808Z,75.079346
2019-04-10T00:26:20.375Z,75.079346
2019-04-10T00:26:34.034Z,75.079346
2019-04-10T00:26:45.893Z,75.079346
2019-04-10T00:26:57.015Z,75.079346
2019-04-10T00:27:08.842Z,75.079346
2019-04-10T00:27:20.815Z,75.079346
2019-04-10T00:27:32.628Z,75.079346
2019-04-10T00:27:45.083Z,75.183105
2019-04-10T00:27:56.319Z,75.183105
2019-04-10T00:28:09.285Z,75.183105
2019-04-10T00:28:20.274Z,75.183105
2019-04-10T00:28:33.846Z,75.183105
2019-04-10T00:28:44.905Z,75.183105
2019-04-10T00:28:56.759Z,75.183105
2019-04-10T00:29:08.588Z,75.079346
2019-04-10T00:29:22.387Z,75.079346
2019-04-10T00:29:33.431Z,75.079346
2019-04-10T00:29:45.364Z,74.975586
2019-04-10T00:29:57.275Z,74.975586
2019-04-10T00:30:11.037Z,74.871826
2019-04-10T00:30:22.143Z,74.871826
2019-04-10T00:30:33.974Z,74.871826
2019-04-10T00:30:45.817Z,74.871826
2019-04-10T00:30:59.474Z,74.871826
2019-04-10T00:31:10.626Z,74.871826
2019-04-10T00:31:22.940Z,74.975586
2019-04-10T00:31:34.342Z,74.975586
2019-04-10T00:31:46.592Z,74.975586
2019-04-10T00:32:01.153Z,74.975586
2019-04-10T00:32:11.913Z,74.975586
2019-04-10T00:32:23.731Z,74.975586
2019-04-10T00:32:36.189Z,74.975586
2019-04-10T00:32:48.002Z,74.871826
2019-04-10T00:33:00.535Z,74.871826
2019-04-10T00:33:12.278Z,74.768066
2019-04-10T00:33:23.371Z,74.768066
2019-04-10T00:33:35.276Z,74.768066
2019-04-10T00:33:47.226Z,74.768066
2019-04-10T00:33:59.059Z,74.664307
2019-04-10T00:34:11.551Z,74.664307
2019-04-10T00:34:23.277Z,74.664307
2019-04-10T00:34:35.770Z,74.664307
2019-04-10T00:34:47.456Z,74.560547
2019-04-10T00:35:00.266Z,74.450684
2019-04-10T00:35:11.142Z,74.450684
2019-04-10T00:35:23.527Z,74.450684
2019-04-10T00:35:35.155Z,74.450684
2019-04-10T00:35:47.695Z,74.450684
2019-04-10T00:35:59.604Z,74.450684
2019-04-10T00:36:12.110Z,74.450684
2019-04-10T00:36:23.363Z,74.560547
2019-04-10T00:36:35.278Z,74.560547
2019-04-10T00:36:47.085Z,74.664307
2019-04-10T00:36:59.535Z,74.664307
2019-04-10T00:37:21.754Z,74.768066
2019-04-10T00:37:28.387Z,74.768066
2019-04-10T00:37:37.348Z,74.768066
2019-04-10T00:37:49.190Z,74.768066
2019-04-10T00:38:00.275Z,74.664307
2019-04-10T00:38:12.113Z,74.560547
2019-04-10T00:38:26.073Z,74.560547
2019-04-10T00:38:37.904Z,74.450684
2019-04-10T00:38:48.736Z,74.450684
2019-04-10T00:39:00.674Z,74.346924
2019-04-10T00:39:12.653Z,74.346924
2019-04-10T00:39:24.455Z,74.346924
2019-04-10T00:39:36.898Z,74.346924
2019-04-10T00:39:48.321Z,74.346924
2019-04-10T00:40:01.166Z,74.346924
2019-04-10T00:40:12.055Z,74.346924
2019-04-10T00:40:25.603Z,74.346924
2019-04-10T00:40:36.727Z,74.346924
2019-04-10T00:40:48.699Z,74.346924
2019-04-10T00:41:00.687Z,74.346924
2019-04-10T00:41:14.179Z,74.346924
2019-04-10T00:41:25.228Z,74.346924
2019-04-10T00:41:37.063Z,74.450684
2019-04-10T00:41:48.897Z,74.450684
2019-04-10T00:42:00.950Z,74.450684
2019-04-10T00:42:12.689Z,74.450684
2019-04-10T00:42:25.913Z,74.450684
2019-04-10T00:42:36.963Z,74.450684
2019-04-10T00:42:49.454Z,74.450684
2019-04-10T00:43:00.353Z,74.450684
2019-04-10T00:43:12.741Z,74.346924
2019-04-10T00:43:24.591Z,74.346924
2019-04-10T00:43:37.028Z,74.346924
2019-04-10T00:43:48.901Z,74.346924
2019-04-10T00:44:01.437Z,74.450684
2019-04-10T00:44:13.294Z,74.450684
2019-04-10T00:44:24.205Z,74.560547
2019-04-10T00:44:36.266Z,74.664307
2019-04-10T00:44:49.876Z,74.768066
2019-04-10T00:45:01.996Z,74.768066
2019-04-10T00:45:13.255Z,74.768066
2019-04-10T00:45:25.093Z,74.664307
2019-04-10T00:45:37.357Z,74.664307
2019-04-10T00:45:49.426Z,74.664307
2019-04-10T00:46:02.005Z,74.560547
2019-04-10T00:46:13.639Z,74.560547
2019-04-10T00:46:24.955Z,74.560547
2019-04-10T00:46:37.978Z,74.450684
2019-04-10T00:46:50.620Z,74.450684
2019-04-10T00:47:02.409Z,74.450684
2019-04-10T00:47:13.382Z,74.450684
2019-04-10T00:47:25.217Z,74.450684
2019-04-10T00:47:37.410Z,74.450684
2019-04-10T00:47:49.040Z,74.450684
2019-04-10T00:48:01.646Z,74.560547
2019-04-10T00:48:12.696Z,74.560547
2019-04-10T00:48:24.535Z,74.591064
2019-04-10T00:48:37.447Z,74.591064
2019-04-10T00:48:50.219Z,74.591064
2019-04-10T00:49:01.263Z,74.591064
2019-04-10T00:49:13.452Z,74.591064
2019-04-10T00:49:25.911Z,74.694824
2019-04-10T00:49:37.838Z,74.694824
2019-04-10T00:49:50.315Z,74.694824
2019-04-10T00:50:02.359Z,74.664307
2019-04-10T00:50:14.371Z,74.560547
2019-04-10T00:50:26.465Z,74.694824
2019-04-10T00:50:37.395Z,74.768066
2019-04-10T00:50:49.274Z,74.798584
2019-04-10T00:51:01.290Z,74.871826
2019-04-10T00:51:13.130Z,74.908447
2019-04-10T00:51:25.541Z,74.768066
2019-04-10T00:51:36.745Z,74.798584
2019-04-10T00:51:48.569Z,74.798584
2019-04-10T00:52:00.682Z,74.798584
2019-04-10T00:52:14.258Z,74.694824
2019-04-10T00:52:25.159Z,74.694824
2019-04-10T00:52:37.155Z,74.694824
2019-04-10T00:52:48.996Z,74.694824
2019-04-10T00:53:00.941Z,74.694824
2019-04-10T00:53:13.820Z,74.694824
2019-04-10T00:53:27.322Z,74.694824
2019-04-10T00:53:38.465Z,74.798584
2019-04-10T00:53:50.309Z,74.798584
2019-04-10T00:54:02.463Z,74.908447
2019-04-10T00:54:16.050Z,74.908447
2019-04-10T00:54:27.128Z,75.012207
2019-04-10T00:54:39.228Z,75.012207
2019-04-10T00:54:51.076Z,75.115967
2019-04-10T00:55:03.602Z,75.115967
2019-04-10T00:55:15.314Z,75.219727
2019-04-10T00:55:26.602Z,75.219727
2019-04-10T00:55:39.639Z,75.219727
2019-04-10T00:55:52.289Z,75.219727
2019-04-10T00:56:03.995Z,75.115967
2019-04-10T00:56:15.084Z,75.115967
2019-04-10T00:56:26.912Z,75.115967
2019-04-10T00:56:38.971Z,75.012207
2019-04-10T00:56:50.684Z,75.012207
2019-04-10T00:57:03.184Z,75.012207
2019-04-10T00:57:14.965Z,75.012207
2019-04-10T00:57:26.229Z,74.908447
2019-04-10T00:57:39.236Z,74.908447
2019-04-10T00:57:51.894Z,74.908447
2019-04-10T00:58:03.656Z,74.908447
2019-04-10T00:58:14.741Z,74.908447
2019-04-10T00:58:26.570Z,74.908447
2019-04-10T00:58:39.451Z,74.908447
2019-04-10T00:58:51.342Z,74.908447
2019-04-10T00:59:03.795Z,75.012207
2019-04-10T00:59:15.711Z,74.908447
2019-04-10T00:59:26.911Z,74.908447
2019-04-10T00:59:40.006Z,74.908447
2019-04-10T00:59:52.562Z,74.908447
2019-04-10T01:00:04.337Z,74.908447
2019-04-10T01:00:15.507Z,75.012207
2019-04-10T01:00:27.336Z,75.012207
2019-04-10T01:00:41.004Z,75.012207
2019-04-10T01:00:53.117Z,75.012207
2019-04-10T01:01:05.571Z,75.115967
2019-04-10T01:01:16.813Z,75.012207
2019-04-10T01:01:29.641Z,75.012207
2019-04-10T01:01:41.560Z,74.908447
2019-04-10T01:01:54.237Z,74.908447
2019-04-10T01:02:05.367Z,74.908447
2019-04-10T01:02:17.203Z,74.908447
2019-04-10T01:02:30.076Z,74.908447
2019-04-10T01:02:42.674Z,74.908447
2019-04-10T01:02:54.780Z,74.908447
2019-04-10T01:03:07.370Z,74.908447
2019-04-10T01:03:18.637Z,74.908447
2019-04-10T01:03:32.013Z,74.871826
2019-04-10T01:03:43.804Z,74.768066
2019-04-10T01:03:56.353Z,74.768066
2019-04-10T01:04:07.167Z,74.664307
2019-04-10T01:04:19.030Z,74.560547
2019-04-10T01:04:31.912Z,74.560547
2019-04-10T01:04:44.630Z,74.450684
2019-04-10T01:04:55.662Z,74.450684
2019-04-10T01:05:07.500Z,74.450684
2019-04-10T01:05:19.399Z,74.450684
2019-04-10T01:05:33.124Z,74.450684
2019-04-10T01:05:45.007Z,74.450684
2019-04-10T01:05:57.584Z,74.450684
2019-04-10T01:06:08.787Z,74.450684
2019-04-10T01:06:20.729Z,74.450684
2019-04-10T01:06:33.653Z,74.450684
2019-04-10T01:06:46.285Z,74.560547
2019-04-10T01:06:57.457Z,74.560547
2019-04-10T01:07:09.324Z,74.560547
2019-04-10T01:07:32.553Z,74.450684
2019-04-10T01:07:39.520Z,74.346924
2019-04-10T01:07:48.548Z,74.346924
2019-04-10T01:08:00.160Z,74.346924
2019-04-10T01:08:12.635Z,74.243164
2019-04-10T01:08:24.492Z,74.139404
2019-04-10T01:08:35.602Z,74.035645
2019-04-10T01:08:47.516Z,73.931885
2019-04-10T01:09:01.321Z,73.828125
2019-04-10T01:09:13.180Z,73.828125
2019-04-10T01:09:24.350Z,73.828125
2019-04-10T01:09:36.226Z,73.828125
2019-04-10T01:09:49.938Z,73.828125
2019-04-10T01:10:02.032Z,73.724365
2019-04-10T01:10:12.737Z,73.620605
2019-04-10T01:10:24.598Z,73.620605
2019-04-10T01:10:36.774Z,73.620605
2019-04-10T01:10:48.466Z,73.620605
2019-04-10T01:11:01.033Z,73.724365
2019-04-10T01:11:12.219Z,73.828125
2019-04-10T01:11:24.970Z,73.828125
2019-04-10T01:11:36.042Z,73.931885
2019-04-10T01:11:49.728Z,73.828125
2019-04-10T01:12:00.717Z,73.828125
2019-04-10T01:12:12.558Z,73.931885
2019-04-10T01:12:24.564Z,74.035645
2019-04-10T01:12:38.305Z,74.139404
2019-04-10T01:12:49.277Z,74.243164
2019-04-10T01:13:02.741Z,74.139404
2019-04-10T01:13:14.061Z,73.931885
2019-04-10T01:13:25.904Z,73.931885
2019-04-10T01:13:37.896Z,73.828125
2019-04-10T01:13:51.600Z,73.895264
2019-04-10T01:14:02.504Z,73.828125
2019-04-10T01:14:14.427Z,73.791504
2019-04-10T01:14:26.531Z,73.791504
2019-04-10T01:14:40.058Z,73.895264
2019-04-10T01:14:51.094Z,73.791504
2019-04-10T01:15:03.549Z,73.828125
2019-04-10T01:15:14.885Z,73.791504
2019-04-10T01:15:28.729Z,73.791504
2019-04-10T01:15:39.574Z,73.791504
2019-04-10T01:15:53.105Z,73.687744
2019-04-10T01:16:04.386Z,73.583984
2019-04-10T01:16:16.765Z,73.583984
2019-04-10T01:16:28.230Z,73.583984
2019-04-10T01:16:41.793Z,73.583984
2019-04-10T01:16:52.897Z,73.583984
2019-04-10T01:17:04.794Z,73.687744
2019-04-10T01:17:16.757Z,73.687744
2019-04-10T01:17:30.401Z,73.583984
2019-04-10T01:17:42.382Z,73.480225
2019-04-10T01:17:53.338Z,73.480225
2019-04-10T01:18:05.227Z,73.480225
2019-04-10T01:18:17.216Z,73.480225
2019-04-10T01:18:30.982Z,73.480225
2019-04-10T01:18:43.573Z,73.480225
2019-04-10T01:18:55.146Z,73.583984
2019-04-10T01:19:06.534Z,73.583984
2019-04-10T01:19:19.565Z,73.687744
2019-04-10T01:19:32.218Z,73.687744
2019-04-10T01:19:43.950Z,73.828125
2019-04-10T01:19:55.015Z,73.828125
2019-04-10T01:20:07.133Z,73.828125
2019-04-10T01:20:19.618Z,73.828125
2019-04-10T01:20:31.316Z,73.828125
2019-04-10T01:20:42.556Z,73.931885
2019-04-10T01:20:54.441Z,73.828125
2019-04-10T01:21:08.203Z,73.828125
2019-04-10T01:21:19.960Z,73.724365
2019-04-10T01:21:32.524Z,73.620605
2019-04-10T01:21:44.286Z,73.620605
2019-04-10T01:21:55.627Z,73.724365
2019-04-10T01:22:08.572Z,73.724365
2019-04-10T01:22:21.223Z,73.724365
2019-04-10T01:22:32.926Z,73.620605
2019-04-10T01:22:44.111Z,73.516846
2019-04-10T01:22:55.954Z,73.516846
2019-04-10T01:23:09.818Z,73.376465
2019-04-10T01:23:20.773Z,73.480225
2019-04-10T01:23:33.078Z,73.516846
2019-04-10T01:23:44.867Z,73.583984
2019-04-10T01:23:57.317Z,73.620605
2019-04-10T01:24:09.045Z,73.620605
2019-04-10T01:24:20.338Z,73.620605
2019-04-10T01:24:33.413Z,73.480225
2019-04-10T01:24:46.057Z,73.516846
2019-04-10T01:24:57.768Z,73.480225
2019-04-10T01:25:08.841Z,73.480225
2019-04-10T01:25:22.046Z,73.583984
2019-04-10T01:25:34.589Z,73.724365
2019-04-10T01:25:46.437Z,73.583984
2019-04-10T01:25:57.552Z,73.583984
2019-04-10T01:26:10.690Z,73.583984
2019-04-10T01:26:23.236Z,73.620605
2019-04-10T01:26:34.966Z,73.724365
2019-04-10T01:26:46.054Z,73.828125
2019-04-10T01:26:59.285Z,73.828125
2019-04-10T01:27:11.755Z,73.828125
2019-04-10T01:27:23.614Z,73.828125
2019-04-10T01:27:34.649Z,73.828125
2019-04-10T01:27:46.480Z,73.828125
2019-04-10T01:27:58.492Z,73.828125
2019-04-10T01:28:10.405Z,73.931885
2019-04-10T01:28:22.690Z,74.035645
2019-04-10T01:28:34.126Z,74.035645
2019-04-10T01:28:47.077Z,74.139404
2019-04-10T01:28:58.890Z,74.243164
2019-04-10T01:29:11.336Z,74.243164
2019-04-10T01:29:22.741Z,74.243164
2019-04-10T01:29:35.564Z,74.243164
2019-04-10T01:29:46.379Z,74.346924
2019-04-10T01:29:58.400Z,74.346924
2019-04-10T01:30:10.518Z,74.346924
2019-04-10T01:30:22.260Z,74.346924
2019-04-10T01:30:34.774Z,74.450684
2019-04-10T01:30:46.539Z,74.450684
2019-04-10T01:30:58.992Z,74.560547
2019-04-10T01:31:10.535Z,74.560547
2019-04-10T01:31:23.283Z,74.664307
2019-04-10T01:31:35.100Z,74.768066
2019-04-10T01:31:46.758Z,74.871826
2019-04-10T01:31:59.182Z,74.871826
2019-04-10T01:32:11.984Z,74.975586
2019-04-10T01:32:23.770Z,74.975586
2019-04-10T01:32:36.329Z,75.115967
2019-04-10T01:32:48.101Z,75.079346
2019-04-10T01:33:00.614Z,75.079346
2019-04-10T01:33:12.405Z,75.115967
2019-04-10T01:33:23.488Z,75.183105
2019-04-10T01:33:35.325Z,75.219727
2019-04-10T01:33:47.432Z,75.183105
2019-04-10T01:34:00.970Z,75.115967
2019-04-10T01:34:13.557Z,75.183105
2019-04-10T01:34:25.383Z,75.323486
2019-04-10T01:34:36.585Z,75.323486
2019-04-10T01:34:48.472Z,75.219727
2019-04-10T01:35:02.438Z,75.219727
2019-04-10T01:35:13.971Z,75.219727
2019-04-10T01:35:25.073Z,75.219727
2019-04-10T01:35:36.977Z,75.323486
2019-04-10T01:35:50.830Z,75.323486
2019-04-10T01:36:02.753Z,75.323486
2019-04-10T01:36:13.667Z,75.323486
2019-04-10T01:36:25.508Z,75.323486
2019-04-10T01:36:37.545Z,75.427246
2019-04-10T01:36:49.225Z,75.427246
2019-04-10T01:37:01.141Z,75.427246
2019-04-10T01:37:12.975Z,75.323486
2019-04-10T01:37:24.921Z,75.323486
2019-04-10T01:37:48.261Z,75.323486
2019-04-10T01:37:55.086Z,75.323486
2019-04-10T01:38:05.630Z,75.323486
2019-04-10T01:38:15.520Z,75.427246
2019-04-10T01:38:27.258Z,75.531006
2019-04-10T01:38:39.818Z,75.427246
2019-04-10T01:38:51.695Z,75.427246
2019-04-10T01:39:02.854Z,75.427246
2019-04-10T01:39:15.824Z,75.427246
2019-04-10T01:39:28.478Z,75.427246
2019-04-10T01:39:40.237Z,75.531006
2019-04-10T01:39:52.797Z,75.634766
2019-04-10T01:40:04.541Z,75.634766
2019-04-10T01:40:17.090Z,75.738525
2019-04-10T01:40:28.906Z,75.738525
2019-04-10T01:40:39.979Z,75.738525
2019-04-10T01:40:51.894Z,75.848389
2019-04-10T01:41:05.666Z,75.848389
2019-04-10T01:41:17.385Z,75.848389
2019-04-10T01:41:28.506Z,75.952148
2019-04-10T01:41:40.393Z,76.055908
2019-04-10T01:41:54.281Z,76.159668
2019-04-10T01:42:06.129Z,76.263428
2019-04-10T01:42:17.077Z,76.263428
2019-04-10T01:42:28.991Z,76.263428
2019-04-10T01:42:40.920Z,76.367188
2019-04-10T01:43:08.053Z,76.367188
2019-04-10T01:43:11.348Z,76.263428
2019-04-10T01:43:20.001Z,76.263428
2019-04-10T01:43:31.125Z,76.263428
2019-04-10T01:43:43.361Z,76.263428
2019-04-10T01:43:55.184Z,76.159668
2019-04-10T01:44:07.615Z,76.159668
2019-04-10T01:44:18.722Z,76.159668
2019-04-10T01:44:30.939Z,76.055908
2019-04-10T01:44:42.780Z,76.055908
2019-04-10T01:44:55.217Z,76.055908
2019-04-10T01:45:06.356Z,76.055908
2019-04-10T01:45:18.302Z,76.055908
2019-04-10T01:45:30.136Z,75.952148
2019-04-10T01:45:43.954Z,75.952148
2019-04-10T01:45:55.110Z,75.952148
2019-04-10T01:46:07.081Z,75.952148
2019-04-10T01:46:19.073Z,75.952148
2019-04-10T01:46:33.480Z,75.952148
2019-04-10T01:46:43.665Z,75.952148
2019-04-10T01:46:55.555Z,75.848389
2019-04-10T01:47:07.512Z,75.848389
2019-04-10T01:47:21.272Z,75.848389
2019-04-10T01:47:32.335Z,75.848389
2019-04-10T01:47:44.170Z,75.738525
2019-04-10T01:47:56.000Z,75.738525
2019-04-10T01:48:09.928Z,75.738525
2019-04-10T01:48:20.790Z,75.848389
2019-04-10T01:48:32.924Z,75.848389
2019-04-10T01:48:44.587Z,75.848389
2019-04-10T01:48:57.294Z,75.738525
2019-04-10T01:49:09.184Z,75.738525
2019-04-10T01:49:20.240Z,75.738525
2019-04-10T01:49:32.101Z,75.634766
2019-04-10T01:49:43.988Z,75.634766
2019-04-10T01:49:57.904Z,75.634766
2019-04-10T01:50:10.440Z,75.634766
2019-04-10T01:50:22.149Z,75.738525
2019-04-10T01:50:34.661Z,75.634766
2019-04-10T01:50:46.209Z,75.634766
2019-04-10T01:50:57.328Z,75.634766
2019-04-10T01:51:09.169Z,75.738525
2019-04-10T01:51:21.273Z,75.634766
2019-04-10T01:51:33.068Z,75.634766
2019-04-10T01:51:45.577Z,75.634766
2019-04-10T01:51:57.388Z,75.634766
2019-04-10T01:52:08.892Z,75.634766
2019-04-10T01:52:20.638Z,75.634766
2019-04-10T01:52:33.213Z,75.634766
2019-04-10T01:52:44.888Z,75.634766
2019-04-10T01:52:57.424Z,75.634766
2019-04-10T01:53:09.189Z,75.738525
2019-04-10T01:53:21.746Z,75.604248
2019-04-10T01:53:33.523Z,75.634766
2019-04-10T01:53:44.729Z,75.531006
2019-04-10T01:53:58.492Z,75.531006
2019-04-10T01:54:09.371Z,75.531006
2019-04-10T01:54:21.241Z,75.531006
2019-04-10T01:54:33.342Z,75.634766
2019-04-10T01:54:47.078Z,75.634766
2019-04-10T01:54:59.731Z,75.634766
2019-04-10T01:55:19.958Z,75.531006
2019-04-10T01:55:28.066Z,75.531006
2019-04-10T01:55:38.729Z,75.531006
2019-04-10T01:55:51.359Z,75.531006
2019-04-10T01:56:03.071Z,75.531006
2019-04-10T01:56:21.764Z,75.531006
2019-04-10T01:56:31.786Z,75.500488
2019-04-10T01:56:39.997Z,75.500488
2019-04-10T01:56:52.177Z,75.500488
2019-04-10T01:57:04.084Z,75.500488
2019-04-10T01:57:16.642Z,75.604248
2019-04-10T01:57:28.382Z,75.500488
2019-04-10T01:57:39.347Z,75.500488
2019-04-10T01:57:51.227Z,75.500488
2019-04-10T01:58:05.067Z,75.500488
2019-04-10T01:58:16.983Z,75.500488
2019-04-10T01:58:27.838Z,75.500488
2019-04-10T01:58:39.667Z,75.500488
2019-04-10T01:58:51.763Z,75.390625
2019-04-10T01:59:05.541Z,75.390625
2019-04-10T01:59:16.312Z,75.390625
2019-04-10T01:59:28.286Z,75.390625
2019-04-10T01:59:40.350Z,75.390625
2019-04-10T01:59:52.131Z,75.390625
2019-04-10T02:00:04.617Z,75.390625
2019-04-10T02:00:15.832Z,75.390625
2019-04-10T02:00:27.828Z,75.500488
2019-04-10T02:00:39.571Z,75.634766
2019-04-10T02:00:52.075Z,75.708008
2019-04-10T02:01:03.883Z,75.708008
2019-04-10T02:01:15.061Z,75.708008
2019-04-10T02:01:26.982Z,75.708008
2019-04-10T02:01:40.773Z,75.738525
2019-04-10T02:01:52.580Z,75.708008
2019-04-10T02:02:03.576Z,75.708008
2019-04-10T02:02:15.416Z,75.708008
2019-04-10T02:02:27.411Z,75.708008
2019-04-10T02:02:40.983Z,75.708008
2019-04-10T02:02:52.172Z,75.708008
2019-04-10T02:03:04.087Z,75.604248
2019-04-10T02:03:16.057Z,75.604248
2019-04-10T02:03:29.876Z,75.604248
2019-04-10T02:03:40.876Z,75.634766
2019-04-10T02:03:52.711Z,75.738525
2019-04-10T02:04:04.753Z,75.738525
2019-04-10T02:04:18.432Z,75.848389
2019-04-10T02:04:29.631Z,75.848389
2019-04-10T02:04:41.766Z,75.952148
2019-04-10T02:04:55.186Z,75.952148
2019-04-10T02:05:08.086Z,75.952148
2019-04-10T02:05:20.698Z,75.952148
2019-04-10T02:05:32.439Z,76.055908
2019-04-10T02:05:44.938Z,76.263428
2019-04-10T02:05:56.676Z,76.367188
2019-04-10T02:06:09.199Z,76.367188
2019-04-10T02:06:21.023Z,76.367188
2019-04-10T02:06:32.286Z,76.470947
2019-04-10T02:06:45.096Z,76.470947
2019-04-10T02:06:57.939Z,76.470947
2019-04-10T02:07:09.635Z,76.574707
2019-04-10T02:07:20.833Z,76.68457
2019-04-10T02:07:33.987Z,76.68457
2019-04-10T02:07:57.644Z,76.68457
2019-04-10T02:08:06.130Z,76.574707
2019-04-10T02:08:13.357Z,76.574707
2019-04-10T02:08:23.619Z,76.574707
2019-04-10T02:08:36.048Z,76.574707
2019-04-10T02:08:47.805Z,76.68457
2019-04-10T02:09:00.409Z,76.68457
2019-04-10T02:09:11.649Z,76.818848
2019-04-10T02:09:25.602Z,76.78833
2019-04-10T02:09:37.173Z,76.818848
2019-04-10T02:09:48.348Z,76.818848
2019-04-10T02:10:00.260Z,76.818848
2019-04-10T02:10:14.012Z,76.818848
2019-04-10T02:10:25.883Z,76.928711
2019-04-10T02:10:36.962Z,76.928711
2019-04-10T02:10:48.821Z,76.928711
2019-04-10T02:11:00.719Z,77.032471
2019-04-10T02:11:13.281Z,77.032471
2019-04-10T02:11:24.367Z,76.99585
2019-04-10T02:11:36.199Z,77.032471
2019-04-10T02:11:50.191Z,77.032471
2019-04-10T02:12:01.974Z,77.032471
2019-04-10T02:12:12.818Z,76.99585
2019-04-10T02:12:24.769Z,77.13623
2019-04-10T02:12:36.844Z,76.99585
2019-04-10T02:12:48.431Z,77.032471
2019-04-10T02:13:01.149Z,76.89209
2019-04-10T02:13:12.439Z,76.928711
2019-04-10T02:13:25.207Z,76.928711
2019-04-10T02:13:37.183Z,77.032471
2019-04-10T02:13:49.693Z,77.032471
2019-04-10T02:14:00.846Z,77.13623
2019-04-10T02:14:12.718Z,77.13623
2019-04-10T02:14:25.624Z,77.13623
2019-04-10T02:14:38.564Z,77.13623
2019-04-10T02:14:49.385Z,77.13623
2019-04-10T02:15:01.219Z,77.032471
2019-04-10T02:15:15.757Z,77.13623
2019-04-10T02:15:26.025Z,77.13623
2019-04-10T02:15:38.457Z,77.13623
2019-04-10T02:15:50.254Z,77.032471
2019-04-10T02:16:01.548Z,77.032471
2019-04-10T02:16:14.396Z,76.928711
2019-04-10T02:16:27.198Z,76.89209
2019-04-10T02:16:39.003Z,76.89209
2019-04-10T02:16:50.043Z,76.78833
2019-04-10T02:17:01.879Z,76.68457
2019-04-10T02:17:14.654Z,76.574707
2019-04-10T02:17:25.677Z,76.574707
2019-04-10T02:17:37.567Z,76.574707
2019-04-10T02:17:49.403Z,76.574707
2019-04-10T02:18:01.354Z,76.470947